Time;durP1;ratioP1;P1;durP2;ratioP2;P2;SDS_P1;SDS_P2;PMS_P1;PMS_P2;Temp;Humidity;BMP_temperature;BMP_pressure;BME280_temperature;BME280_humidity;BME280_pressure;Samples;Min_cycle;Max_cycle;Signal;HPM_P1;HPM_P2
2024/02/18 00:02:09;;;;;;;;;;;;;;;20.37;27.17;98999.81;4989714;28;1887;-81
2024/02/18 00:04:35;;;;;;;;;;;;;;;20.14;27.55;99005.97;4955519;28;1379;-81
2024/02/18 00:07:00;;;;;;;;;;;;;;;20.92;26.64;98999.84;4957021;28;1310;-81
2024/02/18 00:09:26;;;;;;;;;;;;;;;20.81;27.08;98994.25;4972487;28;992;-81
2024/02/18 00:11:52;;;;;;;;;;;;;;;20.92;26.88;98987.72;4973645;28;924;-81
2024/02/18 00:14:17;;;;;;;;;;;;;;;21.09;26.36;98992.44;4956146;28;1116;-81
2024/02/18 00:16:43;;;;;;;;;;;;;;;20.98;26.77;98986.84;5003472;28;1403;-80
2024/02/18 00:19:08;;;;;;;;;;;;;;;20.95;26.79;98992.56;5013079;28;1643;-80
2024/02/18 00:21:34;;;;;;;;;;;;;;;20.93;26.65;98989.31;5013198;28;949;-81
2024/02/18 00:24:00;;;;;;;;;;;;;;;21.22;26.35;98990.69;5013021;28;1891;-81
2024/02/18 00:26:26;;;;;;;;;;;;;;;21.05;26.43;98986.00;5014137;28;1305;-80
2024/02/18 00:28:55;;;;;;;;;;;;;;;20.43;27.34;98989.66;4975890;28;1225;-81
2024/02/18 00:31:21;;;;;;;;;;;;;;;20.20;27.58;98982.50;4992837;28;906;-80
2024/02/18 00:33:46;;;;;;;;;;;;;;;20.95;26.72;98975.56;4970599;28;949;-80
2024/02/18 00:36:12;;;;;;;;;;;;;;;21.05;26.77;98977.50;4958098;29;1120;-81
2024/02/18 00:38:38;;;;;;;;;;;;;;;21.03;26.75;98971.44;4971630;28;864;-79
2024/02/18 00:41:05;;;;;;;;;;;;;;;21.14;26.11;98966.53;4957731;28;1250;-80
2024/02/18 00:43:31;;;;;;;;;;;;;;;20.99;26.73;98963.00;4954866;29;1910;-80
2024/02/18 00:45:56;;;;;;;;;;;;;;;21.00;26.82;98964.63;4974104;28;962;-81
2024/02/18 00:48:22;;;;;;;;;;;;;;;21.11;26.68;98961.69;4971137;28;1015;-80
2024/02/18 00:50:47;;;;;;;;;;;;;;;21.20;26.29;98947.84;4973658;28;930;-81
2024/02/18 00:53:13;;;;;;;;;;;;;;;20.40;27.38;98967.88;4970625;28;973;-81
2024/02/18 00:55:43;;;;;;;;;;;;;;;20.44;27.06;98952.50;4956592;28;1470;-81
2024/02/18 00:58:09;;;;;;;;;;;;;;;20.75;26.92;98956.34;4955668;28;946;-80
2024/02/18 01:00:35;;;;;;;;;;;;;;;20.89;26.63;98948.97;4987233;28;956;-80
2024/02/18 01:03:00;;;;;;;;;;;;;;;21.04;26.50;98950.44;5010262;28;1887;-81
2024/02/18 01:05:26;;;;;;;;;;;;;;;20.96;26.80;98948.88;5007626;28;1184;-81
2024/02/18 01:07:52;;;;;;;;;;;;;;;21.02;26.77;98952.88;4994439;28;945;-81
2024/02/18 01:10:17;;;;;;;;;;;;;;;21.04;26.70;98944.78;5023515;28;1509;-81
2024/02/18 01:12:43;;;;;;;;;;;;;;;21.16;26.32;98947.06;5012044;28;938;-80
2024/02/18 01:15:09;;;;;;;;;;;;;;;21.20;26.41;98949.88;5011696;28;825;-80
2024/02/18 01:17:34;;;;;;;;;;;;;;;20.71;27.06;98947.06;5010963;28;1582;-81
2024/02/18 01:20:00;;;;;;;;;;;;;;;20.53;26.92;98950.03;5012029;28;984;-80
2024/02/18 01:22:25;;;;;;;;;;;;;;;20.86;26.70;98952.59;5012293;28;1957;-81
2024/02/18 01:24:51;;;;;;;;;;;;;;;20.94;26.65;98940.03;5011654;28;1026;-81
2024/02/18 01:27:17;;;;;;;;;;;;;;;20.79;26.84;98940.13;4975471;28;1111;-81
2024/02/18 01:29:43;;;;;;;;;;;;;;;20.88;26.77;98942.50;4958462;28;1211;-80
2024/02/18 01:32:08;;;;;;;;;;;;;;;21.01;26.67;98940.75;4991665;28;1459;-80
2024/02/18 01:34:34;;;;;;;;;;;;;;;21.00;26.52;98941.19;4994219;28;981;-81
2024/02/18 01:37:00;;;;;;;;;;;;;;;21.10;26.54;98931.78;4963188;28;933;-80
2024/02/18 01:39:25;;;;;;;;;;;;;;;20.98;26.77;98940.78;4992986;28;1387;-80
2024/02/18 01:41:51;;;;;;;;;;;;;;;21.22;26.49;98936.91;4995083;28;1176;-81
2024/02/18 01:44:17;;;;;;;;;;;;;;;20.99;26.63;98940.38;4977637;28;1966;-79
2024/02/18 01:46:43;;;;;;;;;;;;;;;20.34;27.36;98944.88;4994957;28;937;-81
2024/02/18 01:49:09;;;;;;;;;;;;;;;20.11;27.73;98945.44;4993599;28;922;-80
2024/02/18 01:51:34;;;;;;;;;;;;;;;20.93;26.88;98946.88;4994461;28;921;-81
2024/02/18 01:54:00;;;;;;;;;;;;;;;20.77;26.79;98944.59;4970136;28;1499;-81
2024/02/18 01:56:25;;;;;;;;;;;;;;;21.05;26.49;98946.38;5007552;28;1023;-81
2024/02/18 01:58:51;;;;;;;;;;;;;;;21.25;26.49;98944.56;5006658;28;1030;-81
2024/02/18 02:01:16;;;;;;;;;;;;;;;21.04;26.78;98947.59;4991456;28;1049;-81
2024/02/18 02:03:42;;;;;;;;;;;;;;;20.86;26.89;98946.94;5007879;28;1887;-81
2024/02/18 02:06:08;;;;;;;;;;;;;;;20.80;27.02;98952.25;5012197;28;912;-81
2024/02/18 02:08:33;;;;;;;;;;;;;;;20.87;26.95;98960.66;5015074;28;1444;-81
2024/02/18 02:10:59;;;;;;;;;;;;;;;20.87;26.96;98949.34;5031946;28;858;-80
2024/02/18 02:13:25;;;;;;;;;;;;;;;20.84;26.72;98946.56;5029052;28;815;-81
2024/02/18 02:15:50;;;;;;;;;;;;;;;20.59;26.77;98953.22;5031899;28;934;-81
2024/02/18 02:18:16;;;;;;;;;;;;;;;20.54;27.01;98948.00;5012401;28;912;-80
2024/02/18 02:20:42;;;;;;;;;;;;;;;20.95;26.83;98952.94;5031742;28;866;-80
2024/02/18 02:23:07;;;;;;;;;;;;;;;20.95;26.74;98959.41;5024259;28;1957;-81
2024/02/18 02:25:34;;;;;;;;;;;;;;;21.07;26.40;98947.56;5010669;28;832;-81
2024/02/18 02:28:18;;;;;;;;;;;;;;;20.75;26.90;98939.38;5009508;28;1069;-81
2024/02/18 02:30:43;;;;;;;;;;;;;;;20.76;27.12;98946.63;5012140;28;977;-81
2024/02/18 02:33:09;;;;;;;;;;;;;;;20.89;27.00;98940.47;5009998;28;910;-81
2024/02/18 02:35:37;;;;;;;;;;;;;;;21.01;26.48;98937.13;5010520;28;811;-80
2024/02/18 02:38:03;;;;;;;;;;;;;;;20.96;26.51;98935.53;4992347;28;1482;-80
2024/02/18 02:40:28;;;;;;;;;;;;;;;19.91;27.77;98935.88;4994244;28;917;-81
2024/02/18 02:42:54;;;;;;;;;;;;;;;20.78;26.89;98932.88;5009698;28;1886;-81
2024/02/18 02:45:19;;;;;;;;;;;;;;;20.93;26.77;98941.22;5011598;28;834;-81
2024/02/18 02:47:45;;;;;;;;;;;;;;;21.10;26.59;98928.16;5010943;28;1005;-81
2024/02/18 02:50:11;;;;;;;;;;;;;;;20.99;26.48;98931.09;5009313;28;974;-81
2024/02/18 02:52:39;;;;;;;;;;;;;;;20.99;26.65;98929.06;5010839;28;1275;-81
2024/02/18 02:55:04;;;;;;;;;;;;;;;20.95;26.80;98938.78;4993513;28;898;-80
2024/02/18 02:57:30;;;;;;;;;;;;;;;20.73;26.93;98936.16;5011125;28;846;-81
2024/02/18 02:59:56;;;;;;;;;;;;;;;20.80;27.14;98933.25;5009077;28;1002;-80
2024/02/18 03:02:22;;;;;;;;;;;;;;;20.95;26.60;98935.97;4988881;28;1923;-80
2024/02/18 03:04:47;;;;;;;;;;;;;;;20.60;27.12;98932.22;4988810;28;1042;-81
2024/02/18 03:07:13;;;;;;;;;;;;;;;20.24;27.64;98932.44;4990231;28;1379;-81
2024/02/18 03:09:38;;;;;;;;;;;;;;;21.05;26.73;98929.41;4988941;28;1028;-81
2024/02/18 03:12:04;;;;;;;;;;;;;;;20.94;26.88;98931.53;4973412;28;974;-81
2024/02/18 03:14:30;;;;;;;;;;;;;;;20.74;26.93;98932.09;4956441;28;1199;-81
2024/02/18 03:16:56;;;;;;;;;;;;;;;21.21;26.52;98932.47;4974131;28;925;-81
2024/02/18 03:19:22;;;;;;;;;;;;;;;21.17;26.36;98928.06;4988699;28;1001;-81
2024/02/18 03:21:48;;;;;;;;;;;;;;;20.92;26.71;98933.97;4988080;28;1449;-81
2024/02/18 03:24:13;;;;;;;;;;;;;;;21.30;26.19;98934.84;4968567;28;1895;-81
2024/02/18 03:26:40;;;;;;;;;;;;;;;20.81;26.69;98931.22;4955319;29;1054;-81
2024/02/18 03:29:08;;;;;;;;;;;;;;;20.29;27.50;98929.16;4949718;29;1068;-79
2024/02/18 03:31:33;;;;;;;;;;;;;;;20.62;26.98;98924.09;4951945;29;916;-81
2024/02/18 03:33:59;;;;;;;;;;;;;;;21.10;26.34;98930.97;4979927;28;977;-81
2024/02/18 03:36:25;;;;;;;;;;;;;;;21.10;26.44;98926.13;4971028;28;1426;-81
2024/02/18 03:38:51;;;;;;;;;;;;;;;21.06;26.64;98931.81;4960461;28;1526;-80
2024/02/18 03:41:16;;;;;;;;;;;;;;;21.03;26.68;98931.84;4953403;28;1634;-81
2024/02/18 03:43:42;;;;;;;;;;;;;;;20.88;27.00;98942.50;4987618;28;1950;-79
2024/02/18 03:46:08;;;;;;;;;;;;;;;20.83;27.16;98934.47;4989511;28;1061;-81
2024/02/18 03:48:34;;;;;;;;;;;;;;;21.14;26.56;98932.56;4972664;28;1325;-80
2024/02/18 03:50:59;;;;;;;;;;;;;;;20.76;26.66;98938.13;4994791;28;993;-80
2024/02/18 03:53:25;;;;;;;;;;;;;;;20.37;27.15;98926.31;4975687;28;1136;-81
2024/02/18 03:55:50;;;;;;;;;;;;;;;20.46;27.38;98932.28;4979375;28;1532;-80
2024/02/18 03:58:16;;;;;;;;;;;;;;;21.40;26.16;98944.44;4959916;28;1478;-81
2024/02/18 04:00:46;;;;;;;;;;;;;;;21.16;26.49;98930.09;4991969;28;1254;-81
2024/02/18 04:03:14;;;;;;;;;;;;;;;21.17;26.47;98937.34;5010941;28;1910;-81
2024/02/18 04:05:41;;;;;;;;;;;;;;;21.23;26.37;98934.88;5013095;28;1082;-81
2024/02/18 04:08:06;;;;;;;;;;;;;;;20.91;26.81;98936.00;5023504;28;872;-81
2024/02/18 04:10:32;;;;;;;;;;;;;;;21.04;26.74;98931.44;5016052;28;1516;-81
2024/02/18 04:12:57;;;;;;;;;;;;;;;21.05;26.75;98933.03;5028293;28;1671;-81
2024/02/18 04:15:23;;;;;;;;;;;;;;;21.19;26.33;98929.28;5020958;28;1554;-81
2024/02/18 04:17:49;;;;;;;;;;;;;;;20.70;26.71;98928.50;5024077;28;1369;-81
2024/02/18 04:20:15;;;;;;;;;;;;;;;20.13;27.53;98931.69;5012628;28;957;-81
2024/02/18 04:22:41;;;;;;;;;;;;;;;20.79;26.79;98937.31;4996475;28;1887;-81
2024/02/18 04:25:07;;;;;;;;;;;;;;;21.00;26.82;98924.19;5011397;28;854;-81
2024/02/18 04:27:33;;;;;;;;;;;;;;;20.93;26.96;98927.06;5013618;28;1028;-81
2024/02/18 04:29:59;;;;;;;;;;;;;;;20.80;27.07;98933.25;5012812;28;944;-81
2024/02/18 04:32:25;;;;;;;;;;;;;;;21.17;26.49;98931.69;5020335;28;1234;-81
2024/02/18 04:34:50;;;;;;;;;;;;;;;21.30;26.08;98935.66;5031014;28;857;-81
2024/02/18 04:37:16;;;;;;;;;;;;;;;20.98;26.63;98940.78;5034309;28;843;-80
2024/02/18 04:39:41;;;;;;;;;;;;;;;20.62;26.92;98938.25;5030602;28;907;-81
2024/02/18 04:42:07;;;;;;;;;;;;;;;20.45;27.26;98942.00;5032405;28;1953;-80
2024/02/18 04:44:33;;;;;;;;;;;;;;;20.87;27.00;98945.72;5030889;28;932;-81
2024/02/18 04:46:59;;;;;;;;;;;;;;;20.92;26.60;98943.25;5031395;28;1499;-81
2024/02/18 04:49:24;;;;;;;;;;;;;;;21.06;26.43;98945.16;5014679;28;1247;-81
2024/02/18 04:51:50;;;;;;;;;;;;;;;20.99;26.68;98942.41;5032022;28;749;-81
2024/02/18 04:54:16;;;;;;;;;;;;;;;21.10;26.57;98943.09;5014020;28;958;-80
2024/02/18 04:56:42;;;;;;;;;;;;;;;21.15;26.36;98939.81;5032361;28;1028;-81
2024/02/18 04:59:07;;;;;;;;;;;;;;;21.25;26.12;98933.25;5031011;28;928;-80
2024/02/18 05:01:33;;;;;;;;;;;;;;;20.36;27.15;98939.63;5029008;28;1688;-81
2024/02/18 05:03:59;;;;;;;;;;;;;;;20.26;27.22;98946.97;5017533;28;2029;-82
2024/02/18 05:06:24;;;;;;;;;;;;;;;20.73;27.15;98946.66;5018512;28;1671;-80
2024/02/18 05:08:50;;;;;;;;;;;;;;;20.93;26.64;98946.88;5014740;28;1278;-81
2024/02/18 05:11:15;;;;;;;;;;;;;;;21.04;26.49;98947.59;5051336;28;938;-81
2024/02/18 05:13:41;;;;;;;;;;;;;;;20.90;26.81;98950.56;5050066;28;972;-80
2024/02/18 05:16:08;;;;;;;;;;;;;;;21.14;26.36;98943.88;5034115;28;949;-81
2024/02/18 05:18:34;;;;;;;;;;;;;;;21.01;26.69;98945.59;5032596;28;1231;-81
2024/02/18 05:21:01;;;;;;;;;;;;;;;20.95;26.49;98953.75;5052788;28;887;-80
2024/02/18 05:23:27;;;;;;;;;;;;;;;20.99;26.56;98967.88;5031770;28;2024;-81
2024/02/18 05:25:52;;;;;;;;;;;;;;;21.24;26.42;98959.94;5013367;28;885;-80
2024/02/18 05:28:18;;;;;;;;;;;;;;;21.20;26.45;98975.34;4995151;28;1123;-81
2024/02/18 05:30:44;;;;;;;;;;;;;;;20.68;26.86;98964.88;5012969;28;905;-81
2024/02/18 05:33:09;;;;;;;;;;;;;;;20.37;27.47;98985.66;5007558;28;1227;-81
2024/02/18 05:35:35;;;;;;;;;;;;;;;21.08;26.39;98979.47;5009232;28;1119;-81
2024/02/18 05:38:00;;;;;;;;;;;;;;;20.80;26.87;98983.38;4992158;28;815;-81
2024/02/18 05:40:26;;;;;;;;;;;;;;;21.04;26.64;98984.41;5009650;28;807;-82
2024/02/18 05:42:51;;;;;;;;;;;;;;;21.05;26.33;98986.00;4957995;29;1977;-80
2024/02/18 05:45:21;;;;;;;;;;;;;;;21.06;26.50;98993.25;4950462;29;1260;-81
2024/02/18 05:47:47;;;;;;;;;;;;;;;21.16;26.58;98986.69;4919929;29;1320;-82
2024/02/18 05:50:12;;;;;;;;;;;;;;;21.22;26.15;98990.69;4918377;29;1323;-81
2024/02/18 05:52:38;;;;;;;;;;;;;;;21.33;26.20;98997.06;4934704;29;1224;-81
2024/02/18 05:55:04;;;;;;;;;;;;;;;21.28;26.11;99000.31;4934199;29;1288;-81
2024/02/18 05:57:30;;;;;;;;;;;;;;;20.47;27.43;98999.75;4928828;29;1165;-81
2024/02/18 05:59:55;;;;;;;;;;;;;;;20.99;26.41;98988.47;4944171;29;1235;-81
2024/02/18 06:02:21;;;;;;;;;;;;;;;20.92;26.71;98999.03;4959681;29;1977;-81
2024/02/18 06:04:47;;;;;;;;;;;;;;;20.97;26.76;98996.56;4957805;29;1262;-81
2024/02/18 06:07:13;;;;;;;;;;;;;;;21.14;26.58;99000.47;4961865;29;1232;-81
2024/02/18 06:09:38;;;;;;;;;;;;;;;20.95;26.63;99001.84;4958092;28;1207;-81
2024/02/18 06:12:04;;;;;;;;;;;;;;;21.12;26.39;98991.59;4962295;28;1417;-81
2024/02/18 06:14:30;;;;;;;;;;;;;;;21.18;26.24;98995.56;5004413;28;1259;-81
2024/02/18 06:16:55;;;;;;;;;;;;;;;20.19;27.38;99000.69;5017810;28;1222;-81
2024/02/18 06:19:21;;;;;;;;;;;;;;;20.67;26.96;99000.00;5015714;28;1209;-81
2024/02/18 06:21:46;;;;;;;;;;;;;;;21.09;26.45;99003.75;5019313;28;1296;-81
2024/02/18 06:24:12;;;;;;;;;;;;;;;21.00;26.52;98994.94;5019325;28;1974;-82
2024/02/18 06:26:41;;;;;;;;;;;;;;;21.09;26.43;98998.09;5017933;28;1199;-81
2024/02/18 06:29:06;;;;;;;;;;;;;;;21.29;26.37;99007.59;4997874;28;1361;-81
2024/02/18 06:31:32;;;;;;;;;;;;;;;21.13;26.43;99007.34;4997443;28;1428;-82
2024/02/18 06:33:57;;;;;;;;;;;;;;;21.08;26.63;99014.25;4995951;28;1289;-82
2024/02/18 06:36:25;;;;;;;;;;;;;;;21.14;26.09;99014.63;4981612;28;1282;-82
2024/02/18 06:38:51;;;;;;;;;;;;;;;20.66;27.01;99015.38;4962051;28;1465;-80
2024/02/18 06:41:16;;;;;;;;;;;;;;;21.01;26.51;99014.31;4967869;28;1235;-81
2024/02/18 06:43:42;;;;;;;;;;;;;;;21.09;26.74;99017.91;4987794;28;1887;-81
2024/02/18 06:46:07;;;;;;;;;;;;;;;20.87;26.98;99019.28;4989680;28;1000;-83
2024/02/18 06:48:33;;;;;;;;;;;;;;;21.14;26.56;99023.13;4955149;28;1279;-82
2024/02/18 06:50:59;;;;;;;;;;;;;;;21.05;26.54;99017.13;4973610;28;1200;-81
2024/02/18 06:53:24;;;;;;;;;;;;;;;21.25;26.36;99018.16;4987249;28;978;-82
2024/02/18 06:55:50;;;;;;;;;;;;;;;21.14;26.25;99013.78;4973233;28;995;-81
2024/02/18 06:58:19;;;;;;;;;;;;;;;20.72;26.90;99024.22;4932870;29;1079;-82
2024/02/18 07:00:45;;;;;;;;;;;;;;;20.55;27.06;99026.75;4916053;29;1142;-82
2024/02/18 07:03:10;;;;;;;;;;;;;;;20.81;27.05;99028.19;4898271;29;1887;-82
2024/02/18 07:05:36;;;;;;;;;;;;;;;20.93;26.79;99029.72;4899923;29;983;-81
2024/02/18 07:08:04;;;;;;;;;;;;;;;21.02;26.59;99034.91;4914100;29;905;-81
2024/02/18 07:10:29;;;;;;;;;;;;;;;21.17;26.33;99032.78;4931017;29;1006;-82
2024/02/18 07:12:55;;;;;;;;;;;;;;;20.99;26.84;99032.94;4930428;29;971;-81
2024/02/18 07:15:21;;;;;;;;;;;;;;;21.31;26.32;99033.50;4930830;29;899;-81
2024/02/18 07:17:46;;;;;;;;;;;;;;;21.29;26.31;99035.91;4930556;29;1145;-81
2024/02/18 07:20:14;;;;;;;;;;;;;;;20.65;27.16;99035.59;4930572;29;971;-81
2024/02/18 07:22:41;;;;;;;;;;;;;;;20.97;26.49;99029.72;4921644;29;1915;-82
2024/02/18 07:25:06;;;;;;;;;;;;;;;20.64;27.13;99040.44;4944802;29;1045;-82
2024/02/18 07:27:32;;;;;;;;;;;;;;;21.08;26.43;99038.91;4915961;29;1094;-81
2024/02/18 07:29:58;;;;;;;;;;;;;;;21.04;26.74;99035.31;4929424;29;1034;-82
2024/02/18 07:32:24;;;;;;;;;;;;;;;21.19;26.59;99031.16;4997379;28;900;-81
2024/02/18 07:34:49;;;;;;;;;;;;;;;21.04;26.76;99024.00;4987663;28;991;-81
2024/02/18 07:37:15;;;;;;;;;;;;;;;21.07;26.61;99032.44;4973328;28;935;-82
2024/02/18 07:39:40;;;;;;;;;;;;;;;20.99;26.58;99032.94;4971031;28;978;-81
2024/02/18 07:42:06;;;;;;;;;;;;;;;20.89;26.97;99043.13;4988909;28;1091;-82
2024/02/18 07:44:32;;;;;;;;;;;;;;;20.60;27.25;99038.84;4955115;28;1884;-82
2024/02/18 07:46:58;;;;;;;;;;;;;;;20.60;27.08;99036.03;4988798;28;969;-82
2024/02/18 07:49:23;;;;;;;;;;;;;;;21.02;26.52;99037.75;4971755;28;902;-82
2024/02/18 07:51:49;;;;;;;;;;;;;;;21.16;26.40;99031.19;4987805;28;936;-81
2024/02/18 07:54:15;;;;;;;;;;;;;;;21.05;26.71;99040.56;4971314;28;932;-82
2024/02/18 07:56:44;;;;;;;;;;;;;;;20.95;26.93;99037.81;4988583;28;1183;-82
2024/02/18 07:59:10;;;;;;;;;;;;;;;21.19;26.52;99036.81;4955186;28;938;-81
2024/02/18 08:01:36;;;;;;;;;;;;;;;21.29;26.45;99041.56;4959335;28;934;-80
2024/02/18 08:04:01;;;;;;;;;;;;;;;21.16;26.51;99029.16;4987041;28;1916;-81
2024/02/18 08:06:29;;;;;;;;;;;;;;;20.62;27.11;99036.41;4988762;28;946;-81
2024/02/18 08:08:55;;;;;;;;;;;;;;;20.27;27.54;99035.38;4970792;28;909;-82
2024/02/18 08:11:20;;;;;;;;;;;;;;;20.90;27.12;99036.22;4956450;28;919;-82
2024/02/18 08:13:46;;;;;;;;;;;;;;;21.07;26.87;99040.13;4969631;28;1507;-82
2024/02/18 08:16:12;;;;;;;;;;;;;;;21.15;26.40;99036.03;4972397;28;930;-82
2024/02/18 08:18:37;;;;;;;;;;;;;;;21.11;26.75;99026.78;4986155;28;945;-82
2024/02/18 08:21:03;;;;;;;;;;;;;;;21.13;26.60;99032.81;4957248;28;998;-82
2024/02/18 08:23:28;;;;;;;;;;;;;;;20.90;26.69;99029.78;4969637;28;1887;-82
2024/02/18 08:25:54;;;;;;;;;;;;;;;20.62;27.13;99037.22;4989167;28;903;-82
2024/02/18 08:28:20;;;;;;;;;;;;;;;20.51;27.23;99033.66;4953303;28;1082;-81
2024/02/18 08:30:45;;;;;;;;;;;;;;;21.07;26.57;99028.81;4972354;28;818;-82
2024/02/18 08:33:11;;;;;;;;;;;;;;;20.93;26.87;99037.41;4970408;28;982;-82
2024/02/18 08:35:37;;;;;;;;;;;;;;;20.94;26.87;99031.34;4952068;29;1302;-75
2024/02/18 08:38:03;;;;;;;;;;;;;;;21.20;26.42;99035.59;4970577;28;974;-79
2024/02/18 08:40:29;;;;;;;;;;;;;;;21.32;26.18;99039.97;4964855;28;948;-79
2024/02/18 08:42:54;;;;;;;;;;;;;;;20.86;26.74;99031.81;4963681;29;1902;-79
2024/02/18 08:45:20;;;;;;;;;;;;;;;21.16;26.44;99031.97;4980899;28;1164;-82
2024/02/18 08:47:46;;;;;;;;;;;;;;;20.32;27.52;99029.28;4955555;28;1343;-81
2024/02/18 08:50:11;;;;;;;;;;;;;;;20.36;27.40;99040.56;4931615;29;1321;-81
2024/02/18 08:52:37;;;;;;;;;;;;;;;21.23;26.37;99034.75;4917608;29;1022;-81
2024/02/18 08:55:03;;;;;;;;;;;;;;;20.99;26.88;99033.75;4932021;29;1509;-82
2024/02/18 08:57:28;;;;;;;;;;;;;;;21.03;26.74;99025.22;4932427;29;1272;-82
2024/02/18 08:59:55;;;;;;;;;;;;;;;21.00;26.78;99026.06;4930888;29;1244;-82
2024/02/18 09:02:21;;;;;;;;;;;;;;;21.25;26.41;99026.66;4917614;29;1906;-81
2024/02/18 09:04:47;;;;;;;;;;;;;;;21.25;26.39;99026.66;4869101;29;1250;-81
2024/02/18 09:07:13;;;;;;;;;;;;;;;21.05;26.69;99025.63;4916829;29;1256;-82
2024/02/18 09:09:38;;;;;;;;;;;;;;;20.20;28.16;99026.91;4931444;29;1327;-81
2024/02/18 09:12:04;;;;;;;;;;;;;;;20.71;27.27;99022.63;4919272;29;1292;-80
2024/02/18 09:14:29;;;;;;;;;;;;;;;21.03;26.65;99022.38;4959584;28;1310;-81
2024/02/18 09:16:55;;;;;;;;;;;;;;;20.74;27.04;99021.81;4960698;28;1322;-81
2024/02/18 09:19:21;;;;;;;;;;;;;;;21.13;26.84;99027.16;4975264;28;1385;-81
2024/02/18 09:21:46;;;;;;;;;;;;;;;21.08;26.77;99019.09;4971649;28;1287;-81
2024/02/18 09:24:12;;;;;;;;;;;;;;;21.06;26.60;99024.38;4969016;28;1883;-81
2024/02/18 09:26:38;;;;;;;;;;;;;;;20.93;27.01;99017.59;4986890;28;1287;-80
2024/02/18 09:29:03;;;;;;;;;;;;;;;21.07;26.83;99011.84;5005457;28;1337;-81
2024/02/18 09:31:34;;;;;;;;;;;;;;;20.98;26.71;99020.00;5008478;28;1215;-81
2024/02/18 09:33:59;;;;;;;;;;;;;;;20.91;26.95;99020.06;4992884;28;1145;-82
2024/02/18 09:36:25;;;;;;;;;;;;;;;21.01;26.74;99013.50;4995663;28;973;-82
2024/02/18 09:38:51;;;;;;;;;;;;;;;20.76;26.87;99002.38;5009689;28;732;-82
2024/02/18 09:41:17;;;;;;;;;;;;;;;20.66;27.00;99009.72;4994245;28;1324;-81
2024/02/18 09:43:43;;;;;;;;;;;;;;;21.04;26.77;99007.03;5008063;28;1970;-81
2024/02/18 09:46:08;;;;;;;;;;;;;;;20.86;27.03;99006.34;4993430;28;1329;-82
2024/02/18 09:48:37;;;;;;;;;;;;;;;20.98;27.13;98991.69;5008089;28;876;-81
2024/02/18 09:51:06;;;;;;;;;;;;;;;21.09;26.81;98998.09;4956929;28;1085;-81
2024/02/18 09:53:34;;;;;;;;;;;;;;;21.11;26.88;98998.47;4956183;28;1123;-82
2024/02/18 09:56:00;;;;;;;;;;;;;;;21.22;26.71;98995.53;4974604;28;910;-81
2024/02/18 09:58:26;;;;;;;;;;;;;;;21.29;26.33;98993.44;4939887;28;1238;-82
2024/02/18 10:00:52;;;;;;;;;;;;;;;20.54;27.61;98996.09;4951608;29;1117;-80
2024/02/18 10:03:17;;;;;;;;;;;;;;;20.68;27.07;99001.66;4932871;29;1944;-80
2024/02/18 10:05:43;;;;;;;;;;;;;;;20.47;27.83;99002.59;4935690;29;941;-80
2024/02/18 10:08:09;;;;;;;;;;;;;;;21.05;26.89;99008.63;4933735;29;928;-80
2024/02/18 10:10:34;;;;;;;;;;;;;;;21.13;26.85;98996.00;4950974;29;926;-80
2024/02/18 10:13:00;;;;;;;;;;;;;;;21.18;26.82;98995.56;4934007;29;1071;-80
2024/02/18 10:15:26;;;;;;;;;;;;;;;21.37;26.31;98984.91;4934968;29;1244;-80
2024/02/18 10:17:52;;;;;;;;;;;;;;;21.06;26.69;98987.59;4918407;29;1259;-80
2024/02/18 10:20:17;;;;;;;;;;;;;;;21.10;26.59;98982.72;4949906;29;1132;-79
2024/02/18 10:22:43;;;;;;;;;;;;;;;20.55;27.35;98992.03;4964538;28;1891;-80
2024/02/18 10:25:08;;;;;;;;;;;;;;;20.65;27.24;98974.19;4987761;28;972;-80
2024/02/18 10:27:37;;;;;;;;;;;;;;;20.49;27.44;98979.56;4988889;28;999;-80
2024/02/18 10:30:03;;;;;;;;;;;;;;;20.98;26.72;98980.38;4987613;28;1176;-80
2024/02/18 10:32:30;;;;;;;;;;;;;;;21.09;26.56;98972.63;4972523;28;979;-81
2024/02/18 10:34:55;;;;;;;;;;;;;;;20.95;26.91;98975.56;5007824;28;862;-80
2024/02/18 10:37:27;;;;;;;;;;;;;;;21.12;26.71;98971.78;5010646;28;907;-80
2024/02/18 10:39:54;;;;;;;;;;;;;;;21.01;26.69;98974.69;5008545;28;1061;-80
2024/02/18 10:42:19;;;;;;;;;;;;;;;21.05;26.75;98964.16;5009124;28;1966;-80
2024/02/18 10:44:45;;;;;;;;;;;;;;;20.88;26.96;98975.63;5007957;28;867;-80
2024/02/18 10:47:11;;;;;;;;;;;;;;;20.90;27.17;98976.03;4993685;28;822;-80
2024/02/18 10:49:40;;;;;;;;;;;;;;;20.65;27.17;98965.69;4992157;28;946;-80
2024/02/18 10:52:20;;;;;;;;;;;;;;;20.66;27.60;98961.66;4992698;28;788;-81
2024/02/18 10:54:51;;;;;;;;;;;;;;;20.93;26.84;98972.34;4991808;28;855;-82
2024/02/18 10:57:18;;;;;;;;;;;;;;;21.01;27.06;98962.59;5008863;28;807;-81
2024/02/18 10:59:57;;;;;;;;;;;;;;;21.12;26.84;98963.28;4990085;28;1230;-81
2024/02/18 11:02:28;;;;;;;;;;;;;;;21.13;26.63;98959.22;4992939;28;1895;-82
2024/02/18 11:04:54;;;;;;;;;;;;;;;21.16;26.66;98969.72;5008551;28;956;-81
2024/02/18 11:07:19;;;;;;;;;;;;;;;20.75;27.11;98967.66;4993513;28;847;-82
2024/02/18 11:09:45;;;;;;;;;;;;;;;20.92;26.82;98965.88;5008332;28;923;-81
2024/02/18 11:12:11;;;;;;;;;;;;;;;21.13;26.78;98964.88;4993275;28;839;-82
2024/02/18 11:14:37;;;;;;;;;;;;;;;21.33;26.61;98963.09;5007515;28;865;-82
2024/02/18 11:17:03;;;;;;;;;;;;;;;21.20;26.77;98959.19;4988255;28;908;-82
2024/02/18 11:19:28;;;;;;;;;;;;;;;21.13;26.58;98959.22;4971023;28;989;-81
2024/02/18 11:21:54;;;;;;;;;;;;;;;21.05;27.02;98946.38;4971974;28;975;-82
2024/02/18 11:24:22;;;;;;;;;;;;;;;21.10;26.94;98954.41;4971089;28;1911;-82
2024/02/18 11:26:47;;;;;;;;;;;;;;;20.99;26.88;98953.72;4956199;28;1084;-81
2024/02/18 11:29:13;;;;;;;;;;;;;;;20.78;27.04;98954.72;4987084;28;1134;-82
2024/02/18 11:31:39;;;;;;;;;;;;;;;20.32;27.62;98952.19;4972514;28;1515;-82
2024/02/18 11:34:04;;;;;;;;;;;;;;;21.12;26.81;98940.66;4954140;28;1117;-81
2024/02/18 11:36:30;;;;;;;;;;;;;;;21.01;26.82;98945.59;4952361;29;1265;-81
2024/02/18 11:38:57;;;;;;;;;;;;;;;20.95;26.94;98941.63;4950855;29;914;-81
2024/02/18 11:41:26;;;;;;;;;;;;;;;20.86;26.96;98938.47;4952467;29;1007;-81
2024/02/18 11:43:53;;;;;;;;;;;;;;;21.05;27.02;98938.69;4951801;29;1902;-82
2024/02/18 11:46:19;;;;;;;;;;;;;;;21.08;26.93;98929.34;4953068;29;982;-81
2024/02/18 11:48:45;;;;;;;;;;;;;;;21.10;26.92;98933.81;4982162;28;937;-82
2024/02/18 11:51:10;;;;;;;;;;;;;;;20.84;26.99;98940.91;4992550;28;1056;-81
2024/02/18 11:53:36;;;;;;;;;;;;;;;20.61;27.50;98939.47;4957141;28;1426;-81
2024/02/18 11:56:03;;;;;;;;;;;;;;;20.87;27.18;98940.06;4975561;28;1088;-82
2024/02/18 11:58:28;;;;;;;;;;;;;;;21.07;26.89;98938.28;4973342;28;1033;-81
2024/02/18 12:00:54;;;;;;;;;;;;;;;20.99;26.84;98942.41;4969139;28;951;-82
2024/02/18 12:03:23;;;;;;;;;;;;;;;20.99;27.13;98937.53;4966588;28;1922;-81
2024/02/18 12:05:49;;;;;;;;;;;;;;;21.09;26.92;98935.84;4929766;29;1271;-81
2024/02/18 12:08:14;;;;;;;;;;;;;;;21.24;26.38;98936.47;4943728;29;945;-82
2024/02/18 12:10:40;;;;;;;;;;;;;;;21.14;26.86;98935.38;4951635;29;855;-81
2024/02/18 12:13:06;;;;;;;;;;;;;;;20.67;27.30;98931.34;4935563;29;920;-82
2024/02/18 12:15:31;;;;;;;;;;;;;;;20.54;27.35;98933.88;4952941;29;1262;-81
2024/02/18 12:17:59;;;;;;;;;;;;;;;20.87;27.43;98940.06;4935723;29;1082;-81
2024/02/18 12:20:27;;;;;;;;;;;;;;;21.05;26.78;98933.03;4936263;29;940;-81
2024/02/18 12:22:55;;;;;;;;;;;;;;;21.01;26.84;98928.63;4936302;29;1994;-81
2024/02/18 12:25:20;;;;;;;;;;;;;;;21.11;26.68;98926.94;4936404;29;1041;-81
2024/02/18 12:27:46;;;;;;;;;;;;;;;21.04;27.17;98922.16;4936643;29;1431;-82
2024/02/18 12:30:12;;;;;;;;;;;;;;;21.10;26.98;98928.94;4935904;29;926;-81
2024/02/18 12:32:38;;;;;;;;;;;;;;;21.08;26.81;98928.56;4899184;29;1022;-82
2024/02/18 12:35:03;;;;;;;;;;;;;;;20.58;27.31;98929.00;4912980;29;986;-81
2024/02/18 12:37:29;;;;;;;;;;;;;;;20.19;28.22;98924.38;4917655;29;943;-81
2024/02/18 12:39:55;;;;;;;;;;;;;;;20.95;27.13;98930.31;4916493;29;954;-81
2024/02/18 12:42:20;;;;;;;;;;;;;;;20.94;27.18;98923.06;4900992;29;1118;-81
2024/02/18 12:44:46;;;;;;;;;;;;;;;20.78;27.21;98932.88;4916013;29;1007;-82
2024/02/18 12:47:12;;;;;;;;;;;;;;;20.93;27.07;98933.53;4902028;29;1150;-81
2024/02/18 12:49:37;;;;;;;;;;;;;;;21.04;26.82;98925.78;4931229;29;966;-81
2024/02/18 12:52:04;;;;;;;;;;;;;;;21.12;26.71;98929.31;4933285;29;810;-81
2024/02/18 12:54:29;;;;;;;;;;;;;;;21.21;26.84;98931.66;4915508;29;1205;-82